sensor_id;sensor_type;location;lat;lon;timestamp;P1;durP1;ratioP1;P2;durP2;ratioP2
15496;SDS011;7850;52.204;5.942;2022-08-16T00:02:44;0.30;;;0.30;;
15496;SDS011;7850;52.204;5.942;2022-08-16T00:02:44;0.44;;;0.44;;
15496;SDS011;7850;52.204;5.942;2022-08-16T00:02:44;0.31;;;0.31;;
15496;SDS011;7850;52.204;5.942;2022-08-16T00:03:08;0.41;;;0.41;;
15496;SDS011;7850;52.204;5.942;2022-08-16T00:04:07;0.39;;;0.39;;
15496;SDS011;7850;52.204;5.942;2022-08-16T00:05:08;0.49;;;0.49;;
15496;SDS011;7850;52.204;5.942;2022-08-16T00:06:07;0.41;;;0.41;;
15496;SDS011;7850;52.204;5.942;2022-08-16T00:07:07;0.57;;;0.57;;
15496;SDS011;7850;52.204;5.942;2022-08-16T00:08:08;0.41;;;0.41;;
15496;SDS011;7850;52.204;5.942;2022-08-16T00:09:08;0.44;;;0.44;;
15496;SDS011;7850;52.204;5.942;2022-08-16T00:10:09;0.48;;;0.48;;
15496;SDS011;7850;52.204;5.942;2022-08-16T00:11:08;0.48;;;0.48;;
15496;SDS011;7850;52.204;5.942;2022-08-16T00:12:08;0.40;;;0.40;;
15496;SDS011;7850;52.204;5.942;2022-08-16T00:13:08;0.41;;;0.41;;
15496;SDS011;7850;52.204;5.942;2022-08-16T00:14:09;0.40;;;0.40;;
15496;SDS011;7850;52.204;5.942;2022-08-16T00:15:10;0.31;;;0.31;;
15496;SDS011;7850;52.204;5.942;2022-08-16T00:16:08;0.40;;;0.40;;
15496;SDS011;7850;52.204;5.942;2022-08-16T00:17:08;0.40;;;0.40;;
15496;SDS011;7850;52.204;5.942;2022-08-16T00:18:08;0.40;;;0.40;;
15496;SDS011;7850;52.204;5.942;2022-08-16T00:19:08;0.30;;;0.30;;
15496;SDS011;7850;52.204;5.942;2022-08-16T00:20:09;0.34;;;0.34;;
15496;SDS011;7850;52.204;5.942;2022-08-16T00:21:08;0.50;;;0.50;;
15496;SDS011;7850;52.204;5.942;2022-08-16T00:22:08;0.44;;;0.44;;
15496;SDS011;7850;52.204;5.942;2022-08-16T00:23:09;0.40;;;0.40;;
15496;SDS011;7850;52.204;5.942;2022-08-16T00:24:09;0.38;;;0.38;;
15496;SDS011;7850;52.204;5.942;2022-08-16T00:25:09;0.55;;;0.55;;
15496;SDS011;7850;52.204;5.942;2022-08-16T00:26:09;0.40;;;0.40;;
15496;SDS011;7850;52.204;5.942;2022-08-16T00:27:09;0.40;;;0.40;;
15496;SDS011;7850;52.204;5.942;2022-08-16T00:28:09;0.40;;;0.40;;
15496;SDS011;7850;52.204;5.942;2022-08-16T00:29:09;0.45;;;0.45;;
15496;SDS011;7850;52.204;5.942;2022-08-16T00:30:10;0.40;;;0.40;;
15496;SDS011;7850;52.204;5.942;2022-08-16T00:31:09;0.47;;;0.47;;
15496;SDS011;7850;52.204;5.942;2022-08-16T00:32:09;0.31;;;0.31;;
15496;SDS011;7850;52.204;5.942;2022-08-16T00:33:09;0.42;;;0.42;;
15496;SDS011;7850;52.204;5.942;2022-08-16T00:34:09;0.44;;;0.44;;
15496;SDS011;7850;52.204;5.942;2022-08-16T00:35:18;0.37;;;0.37;;
15496;SDS011;7850;52.204;5.942;2022-08-16T00:36:09;0.43;;;0.43;;
15496;SDS011;7850;52.204;5.942;2022-08-16T00:37:09;0.32;;;0.32;;
15496;SDS011;7850;52.204;5.942;2022-08-16T00:38:09;0.40;;;0.40;;
15496;SDS011;7850;52.204;5.942;2022-08-16T00:39:09;0.30;;;0.30;;
15496;SDS011;7850;52.204;5.942;2022-08-16T00:40:10;0.48;;;0.48;;
15496;SDS011;7850;52.204;5.942;2022-08-16T00:41:09;0.47;;;0.47;;
15496;SDS011;7850;52.204;5.942;2022-08-16T00:42:09;0.35;;;0.35;;
15496;SDS011;7850;52.204;5.942;2022-08-16T00:43:10;0.40;;;0.40;;
15496;SDS011;7850;52.204;5.942;2022-08-16T00:44:10;0.40;;;0.40;;
15496;SDS011;7850;52.204;5.942;2022-08-16T00:45:25;0.31;;;0.31;;
15496;SDS011;7850;52.204;5.942;2022-08-16T00:46:11;0.36;;;0.36;;
15496;SDS011;7850;52.204;5.942;2022-08-16T00:47:11;0.35;;;0.35;;
15496;SDS011;7850;52.204;5.942;2022-08-16T00:48:10;0.38;;;0.38;;
15496;SDS011;7850;52.204;5.942;2022-08-16T00:49:11;0.40;;;0.40;;
15496;SDS011;7850;52.204;5.942;2022-08-16T00:50:10;0.30;;;0.30;;
15496;SDS011;7850;52.204;5.942;2022-08-16T00:51:10;0.38;;;0.38;;
15496;SDS011;7850;52.204;5.942;2022-08-16T00:52:10;0.39;;;0.39;;
15496;SDS011;7850;52.204;5.942;2022-08-16T00:53:12;0.31;;;0.31;;
15496;SDS011;7850;52.204;5.942;2022-08-16T00:54:10;0.30;;;0.30;;
15496;SDS011;7850;52.204;5.942;2022-08-16T00:55:10;0.40;;;0.40;;
15496;SDS011;7850;52.204;5.942;2022-08-16T00:56:12;0.50;;;0.50;;
15496;SDS011;7850;52.204;5.942;2022-08-16T00:57:10;0.47;;;0.47;;
15496;SDS011;7850;52.204;5.942;2022-08-16T00:58:10;0.40;;;0.40;;
15496;SDS011;7850;52.204;5.942;2022-08-16T00:59:11;0.40;;;0.40;;
15496;SDS011;7850;52.204;5.942;2022-08-16T01:00:11;0.55;;;0.55;;
15496;SDS011;7850;52.204;5.942;2022-08-16T01:01:11;0.41;;;0.41;;
15496;SDS011;7850;52.204;5.942;2022-08-16T01:02:10;0.43;;;0.43;;
15496;SDS011;7850;52.204;5.942;2022-08-16T01:03:11;0.39;;;0.39;;
15496;SDS011;7850;52.204;5.942;2022-08-16T01:04:11;0.36;;;0.36;;
15496;SDS011;7850;52.204;5.942;2022-08-16T01:05:11;0.30;;;0.30;;
15496;SDS011;7850;52.204;5.942;2022-08-16T01:06:11;0.40;;;0.40;;
15496;SDS011;7850;52.204;5.942;2022-08-16T01:07:11;0.45;;;0.45;;
15496;SDS011;7850;52.204;5.942;2022-08-16T01:08:11;0.50;;;0.50;;
15496;SDS011;7850;52.204;5.942;2022-08-16T01:09:11;0.30;;;0.30;;
15496;SDS011;7850;52.204;5.942;2022-08-16T01:10:11;0.30;;;0.30;;
15496;SDS011;7850;52.204;5.942;2022-08-16T01:11:11;0.36;;;0.36;;
15496;SDS011;7850;52.204;5.942;2022-08-16T01:12:11;0.33;;;0.33;;
15496;SDS011;7850;52.204;5.942;2022-08-16T01:13:11;0.30;;;0.30;;
15496;SDS011;7850;52.204;5.942;2022-08-16T01:14:12;0.40;;;0.40;;
15496;SDS011;7850;52.204;5.942;2022-08-16T01:15:11;0.33;;;0.33;;
15496;SDS011;7850;52.204;5.942;2022-08-16T01:16:13;0.30;;;0.30;;
15496;SDS011;7850;52.204;5.942;2022-08-16T01:17:12;0.30;;;0.30;;
15496;SDS011;7850;52.204;5.942;2022-08-16T01:18:12;0.32;;;0.32;;
15496;SDS011;7850;52.204;5.942;2022-08-16T01:19:13;0.39;;;0.39;;
15496;SDS011;7850;52.204;5.942;2022-08-16T01:20:12;0.30;;;0.30;;
15496;SDS011;7850;52.204;5.942;2022-08-16T01:21:18;0.34;;;0.34;;
15496;SDS011;7850;52.204;5.942;2022-08-16T01:22:14;0.32;;;0.32;;
15496;SDS011;7850;52.204;5.942;2022-08-16T01:23:13;0.30;;;0.30;;
15496;SDS011;7850;52.204;5.942;2022-08-16T01:24:14;0.23;;;0.23;;
15496;SDS011;7850;52.204;5.942;2022-08-16T01:25:13;0.30;;;0.30;;
15496;SDS011;7850;52.204;5.942;2022-08-16T01:26:12;0.38;;;0.38;;
15496;SDS011;7850;52.204;5.942;2022-08-16T01:27:12;0.30;;;0.30;;
15496;SDS011;7850;52.204;5.942;2022-08-16T01:28:12;0.30;;;0.30;;
15496;SDS011;7850;52.204;5.942;2022-08-16T01:29:12;0.30;;;0.30;;
15496;SDS011;7850;52.204;5.942;2022-08-16T01:30:12;0.25;;;0.25;;
15496;SDS011;7850;52.204;5.942;2022-08-16T01:31:12;0.30;;;0.30;;
15496;SDS011;7850;52.204;5.942;2022-08-16T01:32:12;0.29;;;0.29;;
15496;SDS011;7850;52.204;5.942;2022-08-16T01:33:12;0.31;;;0.31;;
15496;SDS011;7850;52.204;5.942;2022-08-16T01:34:13;0.30;;;0.30;;
15496;SDS011;7850;52.204;5.942;2022-08-16T01:35:14;0.30;;;0.30;;
15496;SDS011;7850;52.204;5.942;2022-08-16T01:36:12;0.30;;;0.30;;
15496;SDS011;7850;52.204;5.942;2022-08-16T01:37:12;0.28;;;0.28;;
15496;SDS011;7850;52.204;5.942;2022-08-16T01:38:15;0.30;;;0.30;;
15496;SDS011;7850;52.204;5.942;2022-08-16T01:39:14;0.30;;;0.30;;
15496;SDS011;7850;52.204;5.942;2022-08-16T01:40:14;0.27;;;0.27;;
15496;SDS011;7850;52.204;5.942;2022-08-16T01:41:13;0.30;;;0.30;;
15496;SDS011;7850;52.204;5.942;2022-08-16T01:42:12;0.30;;;0.30;;
15496;SDS011;7850;52.204;5.942;2022-08-16T01:43:12;0.20;;;0.20;;
15496;SDS011;7850;52.204;5.942;2022-08-16T01:44:12;0.20;;;0.20;;
15496;SDS011;7850;52.204;5.942;2022-08-16T01:45:13;0.20;;;0.20;;
15496;SDS011;7850;52.204;5.942;2022-08-16T01:46:18;0.24;;;0.24;;
15496;SDS011;7850;52.204;5.942;2022-08-16T01:47:13;0.28;;;0.28;;
15496;SDS011;7850;52.204;5.942;2022-08-16T01:48:13;0.20;;;0.20;;
15496;SDS011;7850;52.204;5.942;2022-08-16T01:49:15;0.20;;;0.20;;
15496;SDS011;7850;52.204;5.942;2022-08-16T01:50:13;0.30;;;0.30;;
15496;SDS011;7850;52.204;5.942;2022-08-16T01:51:13;0.23;;;0.23;;
15496;SDS011;7850;52.204;5.942;2022-08-16T01:52:14;0.26;;;0.26;;
15496;SDS011;7850;52.204;5.942;2022-08-16T01:53:13;0.23;;;0.23;;
15496;SDS011;7850;52.204;5.942;2022-08-16T01:54:13;0.26;;;0.26;;
15496;SDS011;7850;52.204;5.942;2022-08-16T01:55:15;0.30;;;0.30;;
15496;SDS011;7850;52.204;5.942;2022-08-16T01:56:13;0.23;;;0.23;;
15496;SDS011;7850;52.204;5.942;2022-08-16T01:57:13;0.28;;;0.28;;
15496;SDS011;7850;52.204;5.942;2022-08-16T01:58:14;0.24;;;0.24;;
15496;SDS011;7850;52.204;5.942;2022-08-16T01:59:14;0.20;;;0.20;;
15496;SDS011;7850;52.204;5.942;2022-08-16T02:00:14;0.30;;;0.30;;
15496;SDS011;7850;52.204;5.942;2022-08-16T02:01:13;0.20;;;0.20;;
15496;SDS011;7850;52.204;5.942;2022-08-16T02:02:13;0.20;;;0.20;;
15496;SDS011;7850;52.204;5.942;2022-08-16T02:03:13;0.20;;;0.20;;
15496;SDS011;7850;52.204;5.942;2022-08-16T02:04:13;0.27;;;0.27;;
15496;SDS011;7850;52.204;5.942;2022-08-16T02:05:13;0.21;;;0.21;;
15496;SDS011;7850;52.204;5.942;2022-08-16T02:06:14;0.29;;;0.29;;
15496;SDS011;7850;52.204;5.942;2022-08-16T02:07:14;0.23;;;0.23;;
15496;SDS011;7850;52.204;5.942;2022-08-16T02:08:14;0.30;;;0.30;;
15496;SDS011;7850;52.204;5.942;2022-08-16T02:09:14;0.30;;;0.30;;
15496;SDS011;7850;52.204;5.942;2022-08-16T02:10:14;0.26;;;0.26;;
15496;SDS011;7850;52.204;5.942;2022-08-16T02:11:14;0.30;;;0.30;;
15496;SDS011;7850;52.204;5.942;2022-08-16T02:12:14;0.30;;;0.30;;
15496;SDS011;7850;52.204;5.942;2022-08-16T02:13:14;0.30;;;0.30;;
15496;SDS011;7850;52.204;5.942;2022-08-16T02:14:14;0.20;;;0.20;;
15496;SDS011;7850;52.204;5.942;2022-08-16T02:15:14;0.29;;;0.29;;
15496;SDS011;7850;52.204;5.942;2022-08-16T02:16:14;0.28;;;0.28;;
15496;SDS011;7850;52.204;5.942;2022-08-16T02:17:14;0.21;;;0.21;;
15496;SDS011;7850;52.204;5.942;2022-08-16T02:18:14;0.26;;;0.26;;
15496;SDS011;7850;52.204;5.942;2022-08-16T02:19:15;0.20;;;0.20;;
15496;SDS011;7850;52.204;5.942;2022-08-16T02:20:15;0.23;;;0.23;;
15496;SDS011;7850;52.204;5.942;2022-08-16T02:21:15;0.20;;;0.20;;
15496;SDS011;7850;52.204;5.942;2022-08-16T02:22:16;0.26;;;0.26;;
15496;SDS011;7850;52.204;5.942;2022-08-16T02:23:15;0.20;;;0.20;;
15496;SDS011;7850;52.204;5.942;2022-08-16T02:24:15;0.20;;;0.20;;
15496;SDS011;7850;52.204;5.942;2022-08-16T02:25:15;0.20;;;0.20;;
15496;SDS011;7850;52.204;5.942;2022-08-16T02:26:15;0.20;;;0.20;;
15496;SDS011;7850;52.204;5.942;2022-08-16T02:27:15;0.20;;;0.20;;
15496;SDS011;7850;52.204;5.942;2022-08-16T02:28:15;0.20;;;0.20;;
15496;SDS011;7850;52.204;5.942;2022-08-16T02:29:15;0.20;;;0.20;;
15496;SDS011;7850;52.204;5.942;2022-08-16T02:30:17;0.20;;;0.20;;
15496;SDS011;7850;52.204;5.942;2022-08-16T02:31:15;0.20;;;0.20;;
15496;SDS011;7850;52.204;5.942;2022-08-16T02:32:16;0.20;;;0.20;;
15496;SDS011;7850;52.204;5.942;2022-08-16T02:33:15;0.20;;;0.20;;
15496;SDS011;7850;52.204;5.942;2022-08-16T02:34:15;0.20;;;0.20;;
15496;SDS011;7850;52.204;5.942;2022-08-16T02:35:15;0.20;;;0.20;;
15496;SDS011;7850;52.204;5.942;2022-08-16T02:36:16;0.30;;;0.30;;
15496;SDS011;7850;52.204;5.942;2022-08-16T02:37:15;0.21;;;0.21;;
15496;SDS011;7850;52.204;5.942;2022-08-16T02:38:15;0.20;;;0.20;;
15496;SDS011;7850;52.204;5.942;2022-08-16T02:39:16;0.20;;;0.20;;
15496;SDS011;7850;52.204;5.942;2022-08-16T02:40:16;0.20;;;0.20;;
15496;SDS011;7850;52.204;5.942;2022-08-16T02:41:15;0.20;;;0.20;;
15496;SDS011;7850;52.204;5.942;2022-08-16T02:42:16;0.20;;;0.20;;
15496;SDS011;7850;52.204;5.942;2022-08-16T02:43:16;0.20;;;0.20;;
15496;SDS011;7850;52.204;5.942;2022-08-16T02:44:16;0.20;;;0.20;;
15496;SDS011;7850;52.204;5.942;2022-08-16T02:45:16;0.20;;;0.20;;
15496;SDS011;7850;52.204;5.942;2022-08-16T02:46:16;0.20;;;0.20;;
15496;SDS011;7850;52.204;5.942;2022-08-16T02:47:16;0.20;;;0.20;;
15496;SDS011;7850;52.204;5.942;2022-08-16T02:48:16;0.20;;;0.20;;
15496;SDS011;7850;52.204;5.942;2022-08-16T02:49:16;0.20;;;0.20;;
15496;SDS011;7850;52.204;5.942;2022-08-16T02:50:16;0.27;;;0.27;;
15496;SDS011;7850;52.204;5.942;2022-08-16T02:51:16;0.28;;;0.28;;
15496;SDS011;7850;52.204;5.942;2022-08-16T02:52:16;0.25;;;0.25;;
15496;SDS011;7850;52.204;5.942;2022-08-16T02:53:16;0.20;;;0.20;;
15496;SDS011;7850;52.204;5.942;2022-08-16T02:54:16;0.20;;;0.20;;
15496;SDS011;7850;52.204;5.942;2022-08-16T02:55:16;0.20;;;0.20;;
15496;SDS011;7850;52.204;5.942;2022-08-16T02:56:16;0.20;;;0.20;;
15496;SDS011;7850;52.204;5.942;2022-08-16T02:57:16;0.20;;;0.20;;
15496;SDS011;7850;52.204;5.942;2022-08-16T02:58:17;0.20;;;0.20;;
15496;SDS011;7850;52.204;5.942;2022-08-16T02:59:16;0.20;;;0.20;;
15496;SDS011;7850;52.204;5.942;2022-08-16T03:00:17;0.20;;;0.20;;
15496;SDS011;7850;52.204;5.942;2022-08-16T03:01:18;0.20;;;0.20;;
15496;SDS011;7850;52.204;5.942;2022-08-16T03:02:17;0.20;;;0.20;;
15496;SDS011;7850;52.204;5.942;2022-08-16T03:03:17;0.20;;;0.20;;
15496;SDS011;7850;52.204;5.942;2022-08-16T03:04:17;0.20;;;0.20;;
15496;SDS011;7850;52.204;5.942;2022-08-16T03:05:17;0.20;;;0.20;;
15496;SDS011;7850;52.204;5.942;2022-08-16T03:06:17;0.20;;;0.20;;
15496;SDS011;7850;52.204;5.942;2022-08-16T03:07:17;0.20;;;0.20;;
15496;SDS011;7850;52.204;5.942;2022-08-16T03:08:17;0.20;;;0.20;;
15496;SDS011;7850;52.204;5.942;2022-08-16T03:09:17;0.20;;;0.20;;
15496;SDS011;7850;52.204;5.942;2022-08-16T03:10:17;0.25;;;0.25;;
15496;SDS011;7850;52.204;5.942;2022-08-16T03:11:17;0.20;;;0.20;;
15496;SDS011;7850;52.204;5.942;2022-08-16T03:12:17;0.20;;;0.20;;
15496;SDS011;7850;52.204;5.942;2022-08-16T03:13:17;0.20;;;0.20;;
15496;SDS011;7850;52.204;5.942;2022-08-16T03:14:17;0.20;;;0.20;;
15496;SDS011;7850;52.204;5.942;2022-08-16T03:15:18;0.29;;;0.29;;
15496;SDS011;7850;52.204;5.942;2022-08-16T03:16:18;0.20;;;0.20;;
15496;SDS011;7850;52.204;5.942;2022-08-16T03:17:18;0.20;;;0.20;;
15496;SDS011;7850;52.204;5.942;2022-08-16T03:18:18;0.26;;;0.26;;
15496;SDS011;7850;52.204;5.942;2022-08-16T03:19:18;0.20;;;0.20;;
15496;SDS011;7850;52.204;5.942;2022-08-16T03:20:18;0.20;;;0.20;;
15496;SDS011;7850;52.204;5.942;2022-08-16T03:21:18;0.20;;;0.20;;
15496;SDS011;7850;52.204;5.942;2022-08-16T03:22:18;0.20;;;0.20;;
15496;SDS011;7850;52.204;5.942;2022-08-16T03:23:18;0.20;;;0.20;;
15496;SDS011;7850;52.204;5.942;2022-08-16T03:24:18;0.20;;;0.20;;
15496;SDS011;7850;52.204;5.942;2022-08-16T03:25:18;0.20;;;0.20;;
15496;SDS011;7850;52.204;5.942;2022-08-16T03:26:19;0.20;;;0.20;;
15496;SDS011;7850;52.204;5.942;2022-08-16T03:27:18;0.20;;;0.20;;
15496;SDS011;7850;52.204;5.942;2022-08-16T03:28:18;0.20;;;0.20;;
15496;SDS011;7850;52.204;5.942;2022-08-16T03:29:18;0.20;;;0.20;;
15496;SDS011;7850;52.204;5.942;2022-08-16T03:30:19;0.20;;;0.20;;
15496;SDS011;7850;52.204;5.942;2022-08-16T03:31:18;0.20;;;0.20;;
15496;SDS011;7850;52.204;5.942;2022-08-16T03:32:18;0.20;;;0.20;;
15496;SDS011;7850;52.204;5.942;2022-08-16T03:33:19;0.20;;;0.20;;
15496;SDS011;7850;52.204;5.942;2022-08-16T03:34:19;0.20;;;0.20;;
15496;SDS011;7850;52.204;5.942;2022-08-16T03:35:21;0.20;;;0.20;;
15496;SDS011;7850;52.204;5.942;2022-08-16T03:36:19;0.20;;;0.20;;
15496;SDS011;7850;52.204;5.942;2022-08-16T03:37:19;0.20;;;0.20;;
15496;SDS011;7850;52.204;5.942;2022-08-16T03:38:19;0.20;;;0.20;;
15496;SDS011;7850;52.204;5.942;2022-08-16T03:39:19;0.20;;;0.20;;
15496;SDS011;7850;52.204;5.942;2022-08-16T03:40:19;0.20;;;0.20;;
15496;SDS011;7850;52.204;5.942;2022-08-16T03:41:19;0.22;;;0.22;;
15496;SDS011;7850;52.204;5.942;2022-08-16T03:42:19;0.20;;;0.20;;
15496;SDS011;7850;52.204;5.942;2022-08-16T03:43:19;0.20;;;0.20;;
15496;SDS011;7850;52.204;5.942;2022-08-16T03:44:19;0.20;;;0.20;;
15496;SDS011;7850;52.204;5.942;2022-08-16T03:45:19;0.20;;;0.20;;
15496;SDS011;7850;52.204;5.942;2022-08-16T03:46:19;0.20;;;0.20;;
15496;SDS011;7850;52.204;5.942;2022-08-16T03:47:19;0.20;;;0.20;;
15496;SDS011;7850;52.204;5.942;2022-08-16T03:48:20;0.20;;;0.20;;
15496;SDS011;7850;52.204;5.942;2022-08-16T03:49:19;0.20;;;0.20;;
15496;SDS011;7850;52.204;5.942;2022-08-16T03:50:19;0.20;;;0.20;;
15496;SDS011;7850;52.204;5.942;2022-08-16T03:51:20;0.20;;;0.20;;
15496;SDS011;7850;52.204;5.942;2022-08-16T03:52:20;0.20;;;0.20;;
15496;SDS011;7850;52.204;5.942;2022-08-16T03:53:20;0.20;;;0.20;;
15496;SDS011;7850;52.204;5.942;2022-08-16T03:54:20;0.20;;;0.20;;
15496;SDS011;7850;52.204;5.942;2022-08-16T03:55:20;0.20;;;0.20;;
15496;SDS011;7850;52.204;5.942;2022-08-16T03:56:20;0.20;;;0.20;;
15496;SDS011;7850;52.204;5.942;2022-08-16T03:57:20;0.20;;;0.20;;
15496;SDS011;7850;52.204;5.942;2022-08-16T03:58:20;0.27;;;0.27;;
15496;SDS011;7850;52.204;5.942;2022-08-16T03:59:20;0.22;;;0.22;;
15496;SDS011;7850;52.204;5.942;2022-08-16T04:00:21;0.28;;;0.28;;
15496;SDS011;7850;52.204;5.942;2022-08-16T04:01:21;0.20;;;0.20;;
15496;SDS011;7850;52.204;5.942;2022-08-16T04:02:20;0.20;;;0.20;;
15496;SDS011;7850;52.204;5.942;2022-08-16T04:03:20;0.20;;;0.20;;
15496;SDS011;7850;52.204;5.942;2022-08-16T04:04:20;0.20;;;0.20;;
15496;SDS011;7850;52.204;5.942;2022-08-16T04:05:21;0.20;;;0.20;;
15496;SDS011;7850;52.204;5.942;2022-08-16T04:06:20;0.20;;;0.20;;
15496;SDS011;7850;52.204;5.942;2022-08-16T04:07:20;0.20;;;0.20;;
15496;SDS011;7850;52.204;5.942;2022-08-16T04:08:21;0.20;;;0.20;;
15496;SDS011;7850;52.204;5.942;2022-08-16T04:09:21;0.20;;;0.20;;
15496;SDS011;7850;52.204;5.942;2022-08-16T04:10:21;0.20;;;0.20;;
15496;SDS011;7850;52.204;5.942;2022-08-16T04:11:21;0.20;;;0.20;;
15496;SDS011;7850;52.204;5.942;2022-08-16T04:12:21;0.20;;;0.20;;
15496;SDS011;7850;52.204;5.942;2022-08-16T04:13:21;0.20;;;0.20;;
15496;SDS011;7850;52.204;5.942;2022-08-16T04:14:21;0.20;;;0.20;;
15496;SDS011;7850;52.204;5.942;2022-08-16T04:15:21;0.20;;;0.20;;
15496;SDS011;7850;52.204;5.942;2022-08-16T04:16:21;0.20;;;0.20;;
15496;SDS011;7850;52.204;5.942;2022-08-16T04:17:21;0.20;;;0.20;;
15496;SDS011;7850;52.204;5.942;2022-08-16T04:18:21;0.23;;;0.23;;
15496;SDS011;7850;52.204;5.942;2022-08-16T04:19:21;0.18;;;0.18;;
15496;SDS011;7850;52.204;5.942;2022-08-16T04:20:22;0.20;;;0.20;;
15496;SDS011;7850;52.204;5.942;2022-08-16T04:21:21;0.20;;;0.20;;
15496;SDS011;7850;52.204;5.942;2022-08-16T04:22:22;0.20;;;0.20;;
15496;SDS011;7850;52.204;5.942;2022-08-16T04:23:22;0.20;;;0.20;;
15496;SDS011;7850;52.204;5.942;2022-08-16T04:24:22;0.20;;;0.20;;
15496;SDS011;7850;52.204;5.942;2022-08-16T04:25:22;0.20;;;0.20;;
15496;SDS011;7850;52.204;5.942;2022-08-16T04:26:22;0.20;;;0.20;;
15496;SDS011;7850;52.204;5.942;2022-08-16T04:27:22;0.20;;;0.20;;
15496;SDS011;7850;52.204;5.942;2022-08-16T04:28:22;0.20;;;0.20;;
15496;SDS011;7850;52.204;5.942;2022-08-16T04:29:22;0.20;;;0.20;;
15496;SDS011;7850;52.204;5.942;2022-08-16T04:30:22;0.20;;;0.20;;
15496;SDS011;7850;52.204;5.942;2022-08-16T04:31:22;0.20;;;0.20;;
15496;SDS011;7850;52.204;5.942;2022-08-16T04:32:22;0.20;;;0.20;;
15496;SDS011;7850;52.204;5.942;2022-08-16T04:33:22;0.20;;;0.20;;
15496;SDS011;7850;52.204;5.942;2022-08-16T04:34:22;0.20;;;0.20;;
15496;SDS011;7850;52.204;5.942;2022-08-16T04:35:22;0.20;;;0.20;;
15496;SDS011;7850;52.204;5.942;2022-08-16T04:36:22;0.20;;;0.20;;
15496;SDS011;7850;52.204;5.942;2022-08-16T04:37:23;0.20;;;0.20;;
15496;SDS011;7850;52.204;5.942;2022-08-16T04:38:23;0.20;;;0.20;;
15496;SDS011;7850;52.204;5.942;2022-08-16T04:39:23;0.20;;;0.20;;
15496;SDS011;7850;52.204;5.942;2022-08-16T04:40:24;0.20;;;0.20;;
15496;SDS011;7850;52.204;5.942;2022-08-16T04:41:23;0.20;;;0.20;;
15496;SDS011;7850;52.204;5.942;2022-08-16T04:42:23;0.20;;;0.20;;
15496;SDS011;7850;52.204;5.942;2022-08-16T04:43:23;0.20;;;0.20;;
15496;SDS011;7850;52.204;5.942;2022-08-16T04:44:23;0.20;;;0.20;;
15496;SDS011;7850;52.204;5.942;2022-08-16T04:45:23;0.20;;;0.20;;
15496;SDS011;7850;52.204;5.942;2022-08-16T04:46:23;0.20;;;0.20;;
15496;SDS011;7850;52.204;5.942;2022-08-16T04:47:23;0.20;;;0.20;;
15496;SDS011;7850;52.204;5.942;2022-08-16T04:48:23;0.20;;;0.20;;
15496;SDS011;7850;52.204;5.942;2022-08-16T04:49:23;0.20;;;0.20;;
15496;SDS011;7850;52.204;5.942;2022-08-16T04:50:24;0.20;;;0.20;;
15496;SDS011;7850;52.204;5.942;2022-08-16T04:51:23;0.20;;;0.20;;
15496;SDS011;7850;52.204;5.942;2022-08-16T04:52:23;0.20;;;0.20;;
15496;SDS011;7850;52.204;5.942;2022-08-16T04:53:23;0.20;;;0.20;;
15496;SDS011;7850;52.204;5.942;2022-08-16T04:54:24;0.20;;;0.20;;
15496;SDS011;7850;52.204;5.942;2022-08-16T04:55:25;0.20;;;0.20;;
15496;SDS011;7850;52.204;5.942;2022-08-16T04:56:24;0.20;;;0.20;;
15496;SDS011;7850;52.204;5.942;2022-08-16T04:57:24;0.20;;;0.20;;
15496;SDS011;7850;52.204;5.942;2022-08-16T04:58:24;0.20;;;0.20;;
15496;SDS011;7850;52.204;5.942;2022-08-16T04:59:24;0.20;;;0.20;;
15496;SDS011;7850;52.204;5.942;2022-08-16T05:00:25;0.20;;;0.20;;
15496;SDS011;7850;52.204;5.942;2022-08-16T05:01:24;0.21;;;0.21;;
15496;SDS011;7850;52.204;5.942;2022-08-16T05:02:24;0.20;;;0.20;;
15496;SDS011;7850;52.204;5.942;2022-08-16T05:03:24;0.23;;;0.23;;
15496;SDS011;7850;52.204;5.942;2022-08-16T05:04:24;0.20;;;0.20;;
15496;SDS011;7850;52.204;5.942;2022-08-16T05:05:24;0.27;;;0.27;;
15496;SDS011;7850;52.204;5.942;2022-08-16T05:06:24;0.20;;;0.20;;
15496;SDS011;7850;52.204;5.942;2022-08-16T05:07:24;0.21;;;0.21;;
15496;SDS011;7850;52.204;5.942;2022-08-16T05:08:25;0.26;;;0.26;;
15496;SDS011;7850;52.204;5.942;2022-08-16T05:09:24;0.21;;;0.21;;
15496;SDS011;7850;52.204;5.942;2022-08-16T05:10:25;0.22;;;0.22;;
15496;SDS011;7850;52.204;5.942;2022-08-16T05:11:25;0.30;;;0.30;;
15496;SDS011;7850;52.204;5.942;2022-08-16T05:12:25;0.20;;;0.20;;
15496;SDS011;7850;52.204;5.942;2022-08-16T05:13:25;0.20;;;0.20;;
15496;SDS011;7850;52.204;5.942;2022-08-16T05:14:25;0.33;;;0.33;;
15496;SDS011;7850;52.204;5.942;2022-08-16T05:15:25;0.20;;;0.20;;
15496;SDS011;7850;52.204;5.942;2022-08-16T05:16:26;0.22;;;0.22;;
15496;SDS011;7850;52.204;5.942;2022-08-16T05:17:25;0.30;;;0.30;;
15496;SDS011;7850;52.204;5.942;2022-08-16T05:18:25;0.28;;;0.28;;
15496;SDS011;7850;52.204;5.942;2022-08-16T05:19:25;0.20;;;0.20;;
15496;SDS011;7850;52.204;5.942;2022-08-16T05:20:25;0.20;;;0.20;;
15496;SDS011;7850;52.204;5.942;2022-08-16T05:21:25;0.20;;;0.20;;
15496;SDS011;7850;52.204;5.942;2022-08-16T05:22:25;0.26;;;0.26;;
15496;SDS011;7850;52.204;5.942;2022-08-16T05:23:25;0.20;;;0.20;;
15496;SDS011;7850;52.204;5.942;2022-08-16T05:24:25;0.30;;;0.30;;
15496;SDS011;7850;52.204;5.942;2022-08-16T05:25:26;0.30;;;0.30;;
15496;SDS011;7850;52.204;5.942;2022-08-16T05:26:26;0.20;;;0.20;;
15496;SDS011;7850;52.204;5.942;2022-08-16T05:27:26;0.20;;;0.20;;
15496;SDS011;7850;52.204;5.942;2022-08-16T05:28:26;0.33;;;0.33;;
15496;SDS011;7850;52.204;5.942;2022-08-16T05:29:26;0.20;;;0.20;;
15496;SDS011;7850;52.204;5.942;2022-08-16T05:30:26;0.23;;;0.23;;
15496;SDS011;7850;52.204;5.942;2022-08-16T05:31:26;0.23;;;0.23;;
15496;SDS011;7850;52.204;5.942;2022-08-16T05:32:26;0.20;;;0.20;;
15496;SDS011;7850;52.204;5.942;2022-08-16T05:33:26;0.28;;;0.28;;
15496;SDS011;7850;52.204;5.942;2022-08-16T05:34:26;0.30;;;0.30;;
15496;SDS011;7850;52.204;5.942;2022-08-16T05:35:26;0.30;;;0.30;;
15496;SDS011;7850;52.204;5.942;2022-08-16T05:36:26;0.25;;;0.25;;
15496;SDS011;7850;52.204;5.942;2022-08-16T05:37:26;0.20;;;0.20;;
15496;SDS011;7850;52.204;5.942;2022-08-16T05:38:26;0.23;;;0.23;;
15496;SDS011;7850;52.204;5.942;2022-08-16T05:39:26;0.20;;;0.20;;
15496;SDS011;7850;52.204;5.942;2022-08-16T05:40:26;0.30;;;0.30;;
15496;SDS011;7850;52.204;5.942;2022-08-16T05:41:26;0.30;;;0.30;;
15496;SDS011;7850;52.204;5.942;2022-08-16T05:42:26;0.30;;;0.30;;
15496;SDS011;7850;52.204;5.942;2022-08-16T05:43:26;0.26;;;0.26;;
15496;SDS011;7850;52.204;5.942;2022-08-16T05:44:26;0.30;;;0.30;;
15496;SDS011;7850;52.204;5.942;2022-08-16T05:45:26;0.37;;;0.37;;
15496;SDS011;7850;52.204;5.942;2022-08-16T05:46:27;0.30;;;0.30;;
15496;SDS011;7850;52.204;5.942;2022-08-16T05:47:27;0.30;;;0.30;;
15496;SDS011;7850;52.204;5.942;2022-08-16T05:48:27;0.30;;;0.30;;
15496;SDS011;7850;52.204;5.942;2022-08-16T05:49:27;0.30;;;0.30;;
15496;SDS011;7850;52.204;5.942;2022-08-16T05:50:27;0.30;;;0.30;;
15496;SDS011;7850;52.204;5.942;2022-08-16T05:51:27;0.30;;;0.30;;
15496;SDS011;7850;52.204;5.942;2022-08-16T05:52:27;0.29;;;0.29;;
15496;SDS011;7850;52.204;5.942;2022-08-16T05:53:27;0.30;;;0.30;;
15496;SDS011;7850;52.204;5.942;2022-08-16T05:54:27;0.30;;;0.30;;
15496;SDS011;7850;52.204;5.942;2022-08-16T05:55:27;0.30;;;0.30;;
15496;SDS011;7850;52.204;5.942;2022-08-16T05:56:27;0.30;;;0.30;;
15496;SDS011;7850;52.204;5.942;2022-08-16T05:57:27;0.30;;;0.30;;
15496;SDS011;7850;52.204;5.942;2022-08-16T05:58:27;0.31;;;0.31;;
15496;SDS011;7850;52.204;5.942;2022-08-16T05:59:28;0.40;;;0.40;;
15496;SDS011;7850;52.204;5.942;2022-08-16T06:00:27;0.39;;;0.39;;
15496;SDS011;7850;52.204;5.942;2022-08-16T06:01:28;0.40;;;0.40;;
15496;SDS011;7850;52.204;5.942;2022-08-16T06:02:28;0.39;;;0.39;;
15496;SDS011;7850;52.204;5.942;2022-08-16T06:03:28;0.30;;;0.30;;
15496;SDS011;7850;52.204;5.942;2022-08-16T06:04:28;0.40;;;0.40;;
15496;SDS011;7850;52.204;5.942;2022-08-16T06:05:28;0.30;;;0.30;;
15496;SDS011;7850;52.204;5.942;2022-08-16T06:06:28;0.29;;;0.29;;